Погода Бекаана неделю

Бейрут, Ливан

23 - 29 июля
  • 23июля
    Сегодня
    +21°
    +36°
    Ясно и безоблачно
    ВремяПогодаТемператураВлажностьДавлениеВетер, м/сВероятность осадков
    00:00Ясно и безоблачно+24°C44 %660 мм2.1 м/с2 %
    03:00Ясно и безоблачно+22°C50 %659 мм1.8 м/с2 %
    06:00Ясно и безоблачно+20°C51 %659 мм1.5 м/с2 %
    09:00Ясно и безоблачно+28°C32 %661 мм1.2 м/с2 %
    12:00Ясно и безоблачно+34°C19 %661 мм2.6 м/с2 %
    15:00Ясно и безоблачно+35°C23 %661 мм5.1 м/с2 %
    18:00Ясно и безоблачно+32°C25 %660 мм4.3 м/с2 %
    21:00Ясно и безоблачно+27°C38 %660 мм2.4 м/с2 %
  • 24июля
    Среда
    +20°
    +36°
    Ясно и безоблачно
    ВремяПогодаТемператураВлажностьДавлениеВетер, м/сВероятность осадков
    00:00Ясно и безоблачно+24°C40 %659 мм2.0 м/с2 %
    03:00Ясно и безоблачно+23°C41 %657 мм2.0 м/с2 %
    06:00Ясно и безоблачно+22°C43 %657 мм1.6 м/с2 %
    09:00Ясно и безоблачно+29°C31 %659 мм2.0 м/с2 %
    12:00Ясно и безоблачно+34°C23 %659 мм2.9 м/с2 %
    15:00Ясно и безоблачно+35°C22 %658 мм6.0 м/с2 %
    18:00Ясно и безоблачно+31°C32 %658 мм4.6 м/с2 %
    21:00Ясно и безоблачно+26°C51 %657 мм2.4 м/с2 %
  • 25июля
    Четверг
    +20°
    +33°
    Ясно и безоблачно
    ВремяПогодаТемператураВлажностьДавлениеВетер, м/сВероятность осадков
    00:00Ясно и безоблачно+23°C49 %656 мм2.4 м/с2 %
    03:00Ясно и безоблачно+21°C47 %655 мм2.5 м/с2 %
    06:00Ясно и безоблачно+21°C45 %655 мм2.4 м/с2 %
    09:00Ясно и безоблачно+27°C29 %657 мм2.3 м/с2 %
    12:00Ясно и безоблачно+32°C20 %658 мм3.6 м/с2 %
    15:00Ясно и безоблачно+32°C23 %657 мм5.3 м/с2 %
    18:00Ясно и безоблачно+29°C27 %657 мм4.8 м/с2 %
    21:00Ясно и безоблачно+24°C42 %657 мм2.9 м/с2 %
  • 26июля
    Пятница
    +20°
    +32°
    Ясно и безоблачно
    ВремяПогодаТемператураВлажностьДавлениеВетер, м/сВероятность осадков
    00:00Ясно и безоблачно+21°C45 %656 мм2.7 м/с2 %
    03:00Ясно и безоблачно+21°C44 %655 мм2.5 м/с2 %
    06:00Ясно и безоблачно+20°C49 %655 мм2.5 м/с2 %
    09:00Ясно и безоблачно+25°C33 %657 мм3.5 м/с2 %
    12:00Ясно и безоблачно+30°C25 %658 мм4.3 м/с2 %
    15:00Ясно и безоблачно+32°C24 %658 мм5.3 м/с2 %
    18:00Ясно и безоблачно+29°C29 %658 мм4.9 м/с2 %
    21:00Ясно и безоблачно+25°C33 %658 мм2.9 м/с2 %
  • 27июля
    Суббота
    +22°
    +35°
    Ясно и безоблачно
    ВремяПогодаТемператураВлажностьДавлениеВетер, м/сВероятность осадков
    00:00Ясно и безоблачно+22°C36 %657 мм2.2 м/с2 %
    03:00Ясно и безоблачно+21°C35 %657 мм1.8 м/с2 %
    06:00Ясно и безоблачно+20°C37 %657 мм1.7 м/с2 %
    09:00Ясно и безоблачно+26°C29 %659 мм2.2 м/с2 %
    12:00Ясно и безоблачно+32°C20 %660 мм2.8 м/с2 %
    15:00Ясно и безоблачно+35°C24 %660 мм4.5 м/с2 %
    18:00Ясно и безоблачно+32°C35 %660 мм4.0 м/с2 %
    21:00Ясно и безоблачно+26°C50 %660 мм1.7 м/с2 %
Мы используем cookies
Соглашаюсь